Time;durP1;ratioP1;P1;durP2;ratioP2;P2;SDS_P1;SDS_P2;PMS_P1;PMS_P2;Temp;Humidity;BMP_temperature;BMP_pressure;BME280_temperature;BME280_humidity;BME280_pressure;Samples;Min_cycle;Max_cycle;Signal;HPM_P1;HPM_P2
2023/08/15 00:02:13;;;;;;;12.80;5.80;;;18.60;99.90;;;;;;6278408;22;20046;-89
2023/08/15 00:05:23;;;;;;;13.38;5.22;;;18.60;99.90;;;;;;6275779;22;20015;-89
2023/08/15 00:11:52;;;;;;;10.88;5.50;;;18.30;99.90;;;;;;6278494;22;20495;-89
2023/08/15 00:19:43;;;;;;;14.10;6.13;;;18.50;99.90;;;;;;6294483;22;20026;-89
2023/08/15 00:22:17;;;;;;;11.40;5.55;;;18.40;99.90;;;;;;6281926;22;20328;-88
2023/08/15 00:24:57;;;;;;;12.88;6.10;;;18.40;99.90;;;;;;6306013;22;20008;-89
2023/08/15 00:27:37;;;;;;;14.60;6.65;;;18.40;99.90;;;;;;6294375;22;20016;-89
2023/08/15 00:33:41;;;;;;;;;;;;;;;;;;;;;
2023/08/15 00:36:59;;;;;;;;;;;;;;;;;;;;;
2023/08/15 00:40:15;;;;;;;14.27;7.03;;;18.30;99.90;;;;;;6227872;22;20055;-89
2023/08/15 00:42:46;;;;;;;12.30;6.45;;;18.10;99.90;;;;;;6250137;22;20150;-89
2023/08/15 00:45:42;;;;;;;11.85;6.40;;;18.20;99.90;;;;;;6250037;22;20081;-90
2023/08/15 00:48:30;;;;;;;;;;;;;;;;;;;;;
2023/08/15 00:51:38;;;;;;;14.27;7.20;;;18.10;99.90;;;;;;6215615;22;20070;-89
2023/08/15 00:54:15;;;;;;;13.50;7.05;;;18.10;99.90;;;;;;6282795;22;20019;-89
2023/08/15 00:56:41;;;;;;;15.25;6.40;;;18.10;99.90;;;;;;6284539;22;20062;-89
2023/08/15 00:59:16;;;;;;;12.43;6.68;;;18.00;99.90;;;;;;6296123;22;20045;-89
2023/08/15 01:01:44;;;;;;;12.85;6.47;;;18.10;99.90;;;;;;6318754;22;20015;-88
2023/08/15 01:04:14;;;;;;;13.32;6.90;;;18.00;99.90;;;;;;6277564;22;20325;-87
2023/08/15 01:06:50;;;;;;;12.75;7.05;;;18.00;99.90;;;;;;6308328;22;20058;-88
2023/08/15 01:10:01;;;;;;;13.10;6.93;;;17.90;99.90;;;;;;6309015;22;20011;-88
2023/08/15 01:12:57;;;;;;;;;;;;;;;;;;;;;
2023/08/15 01:16:48;;;;;;;14.70;9.00;;;17.90;99.90;;;;;;6262432;22;20039;-88
2023/08/15 01:26:04;;;;;;;18.27;8.40;;;17.90;99.90;;;;;;6253587;22;20092;-89
2023/08/15 01:31:36;;;;;;;15.73;9.57;;;17.90;99.90;;;;;;6309097;22;20076;-90
2023/08/15 01:34:20;;;;;;;15.30;8.50;;;18.10;99.90;;;;;;6313879;22;20015;-89
2023/08/15 01:41:09;;;;;;;15.43;8.90;;;17.90;99.90;;;;;;6279390;22;20023;-88
2023/08/15 01:43:46;;;;;;;17.55;9.65;;;17.60;99.90;;;;;;6204236;23;20020;-88
2023/08/15 01:46:59;;;;;;;16.63;9.90;;;17.90;99.90;;;;;;6217914;23;20028;-88
2023/08/15 01:49:39;;;;;;;16.83;9.27;;;17.60;99.90;;;;;;6307111;22;20053;-89
2023/08/15 01:52:59;;;;;;;22.80;10.98;;;18.30;99.90;;;;;;6307669;22;20011;-89
2023/08/15 01:55:52;;;;;;;;;;;;;;;;;;;;;
2023/08/15 01:58:42;;;;;;;17.15;10.30;;;17.90;99.90;;;;;;6153245;23;20013;-89
2023/08/15 02:01:21;;;;;;;18.15;9.68;;;17.80;99.90;;;;;;6217853;23;20573;-89
2023/08/15 02:03:55;;;;;;;15.35;9.80;;;17.90;99.90;;;;;;6242572;23;20013;-89
2023/08/15 02:06:30;;;;;;;17.80;9.27;;;17.90;99.90;;;;;;6217014;23;20031;-88
2023/08/15 02:09:13;;;;;;;;;;;;;;;;;;;;;
2023/08/15 02:12:17;;;;;;;;;;;;;;;;;;;;;
2023/08/15 02:23:57;;;;;;;17.83;10.50;;;17.70;99.90;;;;;;6293633;22;20474;-88
2023/08/15 02:26:32;;;;;;;19.70;11.98;;;17.70;99.90;;;;;;6303185;22;20347;-88
2023/08/15 02:30:08;;;;;;;17.13;11.38;;;17.70;99.90;;;;;;6262264;22;20019;-88
2023/08/15 02:33:33;;;;;;;21.58;12.73;;;17.60;99.90;;;;;;6279708;22;20019;-90
2023/08/15 02:43:16;;;;;;;24.92;15.00;;;17.70;99.90;;;;;;6296336;22;20019;-88
2023/08/15 02:46:28;;;;;;;;;;;;;;;;;;;;;
2023/08/15 02:49:28;;;;;;;;;;;;;;;;;;;;;
2023/08/15 02:56:34;;;;;;;24.88;16.75;;;17.80;99.90;;;;;;6219305;22;20404;-91
2023/08/15 02:59:18;;;;;;;26.55;16.60;;;17.90;99.90;;;;;;6272660;22;20564;-90
2023/08/15 03:02:00;;;;;;;;;;;;;;;;;;;;;
2023/08/15 03:04:59;;;;;;;22.85;15.65;;;17.90;99.90;;;;;;6259913;22;20455;-90
2023/08/15 03:08:01;;;;;;;24.70;16.50;;;17.90;99.90;;;;;;6276289;22;20016;-90
2023/08/15 03:11:19;;;;;;;22.92;14.70;;;17.90;99.90;;;;;;6274333;22;20087;-90
2023/08/15 03:13:58;;;;;;;24.02;15.68;;;17.60;99.90;;;;;;6126686;23;20018;-91
2023/08/15 03:17:22;;;;;;;24.55;17.00;;;18.00;99.90;;;;;;6128892;23;20496;-90
2023/08/15 03:20:29;;;;;;;24.40;17.00;;;18.10;99.90;;;;;;6055477;23;20029;-90
2023/08/15 03:22:55;;;;;;;25.10;16.60;;;18.20;99.90;;;;;;6042912;23;20351;-90
2023/08/15 03:25:42;;;;;;;;;;;;;;;;;;;;;
2023/08/15 03:28:57;;;;;;;28.38;17.98;;;18.20;99.90;;;;;;6039282;23;20019;-88
2023/08/15 03:32:08;;;;;;;;;;;;;;;;;;;;;
2023/08/15 03:35:02;;;;;;;25.75;16.73;;;18.30;99.90;;;;;;5992388;23;20019;-88
2023/08/15 03:37:36;;;;;;;24.35;16.75;;;18.20;99.90;;;;;;6254845;22;20071;-88
2023/08/15 03:40:16;;;;;;;22.38;16.60;;;18.50;99.90;;;;;;6285223;22;20055;-88
2023/08/15 03:46:05;;;;;;;;;;;;;;;;;;;;;
2023/08/15 03:49:08;;;;;;;22.42;16.27;;;18.30;99.90;;;;;;6279448;22;20043;-90
2023/08/15 03:51:49;;;;;;;;;;;;;;;;;;;;;
2023/08/15 03:54:52;;;;;;;;;;;;;;;;;;;;;
2023/08/15 04:06:09;;;;;;;20.63;16.45;;;18.70;99.90;;;;;;6183746;23;20023;-90
2023/08/15 04:09:06;;;;;;;;;;;;;;;;;;;;;
2023/08/15 04:12:05;;;;;;;;;;;;;;;;;;;;;
2023/08/15 04:15:18;;;;;;;22.65;16.55;;;18.70;99.90;;;;;;6303078;22;20028;-89
2023/08/15 04:20:43;;;;;;;29.20;17.63;;;18.70;99.90;;;;;;6281247;22;20055;-88
2023/08/15 04:23:25;;;;;;;28.17;18.20;;;18.70;99.90;;;;;;6281300;22;20011;-90
2023/08/15 04:25:51;;;;;;;32.65;17.75;;;18.70;99.90;;;;;;6281221;22;20093;-87
2023/08/15 04:28:17;;;;;;;31.85;18.73;;;18.70;99.90;;;;;;6308668;22;20092;-87
2023/08/15 04:30:43;;;;;;;21.42;8.55;;;18.80;99.90;;;;;;6308025;22;20073;-85
2023/08/15 04:36:14;;;;;;;9.25;4.05;;;18.50;99.90;;;;;;6215863;23;20031;-83
2023/08/15 04:38:40;;;;;;;12.48;5.45;;;18.40;99.90;;;;;;6220516;23;20487;-84
2023/08/15 04:41:12;;;;;;;13.50;7.90;;;18.40;99.90;;;;;;6189999;23;20013;-84
2023/08/15 04:43:40;;;;;;;20.02;13.15;;;18.30;99.90;;;;;;6188198;23;20024;-85
2023/08/15 04:46:21;;;;;;;25.17;14.32;;;18.40;99.90;;;;;;6210943;23;20406;-85
2023/08/15 04:48:47;;;;;;;25.77;16.13;;;18.60;99.90;;;;;;6189552;23;20052;-85
2023/08/15 04:51:12;;;;;;;24.90;16.95;;;18.60;99.90;;;;;;6214869;23;20095;-85
2023/08/15 04:53:39;;;;;;;26.75;17.50;;;18.80;99.90;;;;;;6189228;23;20016;-86
2023/08/15 04:56:14;;;;;;;27.88;17.70;;;18.70;99.90;;;;;;6190296;23;20039;-85
2023/08/15 04:58:40;;;;;;;33.08;17.40;;;18.70;99.90;;;;;;6216069;23;20023;-84
2023/08/15 05:01:27;;;;;;;28.55;18.13;;;18.70;99.90;;;;;;6218768;23;20013;-85
2023/08/15 05:04:07;;;;;;;29.00;18.10;;;18.70;99.90;;;;;;6215661;23;20028;-85
2023/08/15 05:06:33;;;;;;;27.02;17.95;;;18.70;99.90;;;;;;6190229;23;20021;-85
2023/08/15 05:09:08;;;;;;;28.02;17.42;;;18.70;99.90;;;;;;6189604;23;20016;-85
2023/08/15 05:11:33;;;;;;;28.63;18.10;;;18.70;99.90;;;;;;6188780;23;20027;-85
2023/08/15 05:14:06;;;;;;;27.85;17.85;;;18.70;99.90;;;;;;6193787;23;20380;-85
2023/08/15 05:16:32;;;;;;;29.25;19.33;;;19.00;99.90;;;;;;6198308;23;20091;-84
2023/08/15 05:19:13;;;;;;;27.42;17.27;;;18.70;99.90;;;;;;6187865;23;20048;-85
2023/08/15 05:21:40;;;;;;;30.40;18.40;;;18.70;99.90;;;;;;6189373;23;20028;-88
2023/08/15 05:24:07;;;;;;;29.73;17.13;;;18.80;99.90;;;;;;6189559;23;20318;-86
2023/08/15 05:26:32;;;;;;;29.45;18.45;;;18.80;99.90;;;;;;6215737;23;20023;-87
2023/08/15 05:29:04;;;;;;;27.70;17.67;;;18.70;99.90;;;;;;6189142;23;20025;-86
2023/08/15 05:31:30;;;;;;;25.00;16.13;;;18.70;99.90;;;;;;6216387;23;20012;-89
2023/08/15 05:34:01;;;;;;;26.83;16.92;;;18.70;99.90;;;;;;6214694;23;20017;-86
2023/08/15 05:36:42;;;;;;;28.40;16.65;;;18.70;99.90;;;;;;6190063;23;20032;-92
2023/08/15 05:39:08;;;;;;;30.73;17.65;;;18.70;99.90;;;;;;6189284;23;20063;-87
2023/08/15 05:41:34;;;;;;;26.52;17.88;;;18.70;99.90;;;;;;6187859;23;20449;-85
2023/08/15 05:44:03;;;;;;;26.75;16.50;;;18.70;99.90;;;;;;6215303;23;20013;-84
2023/08/15 05:46:29;;;;;;;27.25;16.48;;;18.70;99.90;;;;;;6210785;22;20094;-86
2023/08/15 05:48:54;;;;;;;26.73;17.35;;;18.70;99.90;;;;;;6276861;22;20361;-87
2023/08/15 05:51:20;;;;;;;27.02;16.90;;;18.80;99.90;;;;;;6284190;22;20038;-86
2023/08/15 05:54:01;;;;;;;23.90;16.77;;;18.60;99.90;;;;;;6253862;22;20348;-86
2023/08/15 05:56:27;;;;;;;25.67;16.77;;;18.60;99.90;;;;;;6277107;22;20077;-86
2023/08/15 05:58:53;;;;;;;26.90;15.55;;;18.60;99.90;;;;;;6276636;22;20019;-86
2023/08/15 06:01:21;;;;;;;21.70;15.80;;;18.50;99.90;;;;;;6276024;22;20511;-87
2023/08/15 06:03:49;;;;;;;27.35;15.98;;;18.40;99.90;;;;;;6274989;22;20325;-86
2023/08/15 06:06:15;;;;;;;21.58;14.30;;;18.40;99.90;;;;;;6275737;22;20020;-85
2023/08/15 06:08:50;;;;;;;23.55;15.15;;;18.40;99.90;;;;;;6274532;22;20015;-88
2023/08/15 06:11:31;;;;;;;25.95;13.98;;;18.30;99.90;;;;;;6249587;22;20020;-86
2023/08/15 06:14:10;;;;;;;24.83;13.85;;;18.30;99.90;;;;;;6249361;22;20023;-84
2023/08/15 06:16:35;;;;;;;22.10;13.50;;;18.20;99.90;;;;;;6275614;22;20018;-85
2023/08/15 06:19:01;;;;;;;21.92;12.98;;;18.20;99.90;;;;;;6277057;22;20016;-86
2023/08/15 06:21:27;;;;;;;22.60;12.88;;;18.20;99.90;;;;;;6276014;22;20039;-85
2023/08/15 06:23:52;;;;;;;20.30;13.02;;;18.20;99.90;;;;;;6274539;22;20026;-84
2023/08/15 06:26:21;;;;;;;23.00;13.25;;;18.10;99.90;;;;;;6276508;22;20016;-85
2023/08/15 06:28:46;;;;;;;22.40;14.00;;;18.00;99.90;;;;;;6275847;22;20016;-85
2023/08/15 06:31:30;;;;;;;22.75;14.13;;;18.00;99.90;;;;;;6248132;22;20066;-85
2023/08/15 06:33:56;;;;;;;25.20;14.38;;;18.00;99.90;;;;;;6272029;22;20401;-85
2023/08/15 06:36:22;;;;;;;24.33;15.10;;;18.00;99.90;;;;;;6246122;22;20499;-85
2023/08/15 06:38:53;;;;;;;24.00;14.75;;;18.00;99.90;;;;;;6273501;22;20020;-86
2023/08/15 06:41:19;;;;;;;23.73;13.80;;;18.00;99.90;;;;;;6249484;22;20424;-85
2023/08/15 06:43:45;;;;;;;23.42;14.93;;;18.00;99.90;;;;;;6247942;22;20095;-85
2023/08/15 06:46:50;;;;;;;22.67;13.85;;;18.00;99.90;;;;;;6274216;22;20020;-85
2023/08/15 06:49:16;;;;;;;24.05;14.07;;;18.00;99.90;;;;;;6274308;22;20051;-85
2023/08/15 06:51:41;;;;;;;21.63;12.73;;;18.00;99.90;;;;;;6246497;22;20092;-85
2023/08/15 06:54:10;;;;;;;21.40;12.02;;;18.00;99.90;;;;;;6247703;22;20022;-86
2023/08/15 06:56:38;;;;;;;18.85;12.32;;;18.00;99.90;;;;;;6275434;22;20020;-84
2023/08/15 06:59:04;;;;;;;22.45;10.93;;;18.00;99.90;;;;;;6276017;22;20022;-86
2023/08/15 07:01:42;;;;;;;18.38;11.20;;;18.10;99.90;;;;;;6274032;22;20313;-85
2023/08/15 07:04:25;;;;;;;16.85;11.05;;;18.20;99.90;;;;;;6249207;22;20012;-85
2023/08/15 07:06:52;;;;;;;20.50;10.35;;;18.20;99.90;;;;;;6252968;22;20020;-86
2023/08/15 07:09:40;;;;;;;20.33;10.32;;;18.30;99.90;;;;;;6276503;22;20367;-86
2023/08/15 07:12:12;;;;;;;16.00;9.68;;;18.30;99.90;;;;;;6248276;22;20467;-85
2023/08/15 07:14:58;;;;;;;15.65;8.75;;;18.40;99.90;;;;;;6248723;22;20008;-86
2023/08/15 07:17:41;;;;;;;22.17;9.57;;;18.40;99.90;;;;;;6275233;22;20375;-86
2023/08/15 07:20:16;;;;;;;19.20;8.93;;;18.40;99.90;;;;;;6248961;22;20023;-86
2023/08/15 07:22:42;;;;;;;16.95;8.40;;;18.50;99.90;;;;;;6248306;22;20015;-86
2023/08/15 07:25:19;;;;;;;16.05;8.73;;;18.50;99.90;;;;;;6247958;22;20026;-85
2023/08/15 07:28:07;;;;;;;15.63;7.65;;;18.60;99.90;;;;;;6276162;22;20012;-85
2023/08/15 07:30:52;;;;;;;16.90;7.47;;;18.70;99.90;;;;;;6248579;22;20030;-86
2023/08/15 07:33:35;;;;;;;14.85;7.55;;;18.70;99.90;;;;;;6274765;22;20016;-86
2023/08/15 07:36:01;;;;;;;18.08;7.60;;;18.70;99.90;;;;;;6274609;22;20024;-86
2023/08/15 07:38:29;;;;;;;19.08;7.03;;;18.70;99.90;;;;;;6275958;22;20301;-85
2023/08/15 07:41:06;;;;;;;16.13;7.78;;;18.80;99.90;;;;;;6273809;22;20020;-86
2023/08/15 07:43:32;;;;;;;14.23;6.57;;;18.80;99.90;;;;;;6276857;22;20022;-85
2023/08/15 07:46:07;;;;;;;18.90;7.40;;;18.90;99.90;;;;;;6276756;22;20094;-86
2023/08/15 07:48:33;;;;;;;18.85;6.57;;;19.00;99.90;;;;;;6278402;22;20026;-86
2023/08/15 07:50:59;;;;;;;17.00;6.53;;;19.00;99.90;;;;;;6283009;22;20020;-86
2023/08/15 07:53:37;;;;;;;14.70;6.20;;;19.00;99.90;;;;;;6282286;22;20459;-86
2023/08/15 07:56:18;;;;;;;15.38;5.72;;;19.00;99.90;;;;;;6278442;22;20094;-86
2023/08/15 07:59:24;;;;;;;12.65;5.28;;;19.10;99.90;;;;;;6250568;22;20022;-86
2023/08/15 08:24:53;;;;;;;11.75;5.30;;;19.40;99.90;;;;;;6237744;22;20098;-87
2023/08/15 08:31:02;;;;;;;13.07;5.13;;;19.50;99.90;;;;;;6265835;22;20029;-86
2023/08/15 08:34:13;;;;;;;;;;;;;;;;;;;;;
2023/08/15 08:37:19;;;;;;;;;;;;;;;;;;;;;
2023/08/15 08:40:46;;;;;;;12.82;4.75;;;20.10;99.90;;;;;;6253974;22;20045;-86
2023/08/15 08:43:39;;;;;;;14.15;4.55;;;20.20;99.90;;;;;;6182986;23;20028;-86
2023/08/15 08:46:18;;;;;;;11.80;3.88;;;20.10;99.90;;;;;;6194588;22;20053;-86
2023/08/15 08:49:57;;;;;;;14.00;4.40;;;20.00;99.90;;;;;;6280656;22;20015;-86
2023/08/15 08:55:52;;;;;;;12.63;5.50;;;19.80;99.90;;;;;;6284806;22;20089;-87
2023/08/15 08:58:37;;;;;;;11.20;5.13;;;19.70;99.90;;;;;;6206717;22;20030;-88
2023/08/15 09:03:57;;;;;;;11.45;5.30;;;19.60;99.90;;;;;;6302288;22;20773;-86
2023/08/15 09:06:29;;;;;;;12.23;6.05;;;19.60;99.90;;;;;;6280187;22;20023;-88
2023/08/15 09:09:08;;;;;;;12.40;6.45;;;19.60;99.90;;;;;;6280608;22;20015;-88
2023/08/15 09:11:47;;;;;;;15.18;6.55;;;19.60;99.90;;;;;;6274125;22;20487;-88
2023/08/15 09:14:42;;;;;;;14.02;6.95;;;19.70;99.90;;;;;;6250300;22;20022;-88
2023/08/15 09:17:23;;;;;;;12.95;6.63;;;19.80;99.90;;;;;;6210132;22;20016;-88
2023/08/15 09:20:30;;;;;;;15.10;7.07;;;19.90;99.90;;;;;;6278749;22;20016;-84
2023/08/15 09:23:10;;;;;;;13.23;8.00;;;19.90;99.90;;;;;;6291427;22;20100;-88
2023/08/15 09:25:54;;;;;;;;;;;;;;;;;;;;;
2023/08/15 09:28:59;;;;;;;13.25;7.43;;;20.00;99.90;;;;;;6234120;22;20031;-87
2023/08/15 09:32:21;;;;;;;12.82;7.25;;;20.00;99.90;;;;;;6278856;22;20020;-88
2023/08/15 09:34:56;;;;;;;15.07;7.20;;;19.80;99.90;;;;;;6271536;22;20015;-86
2023/08/15 09:37:48;;;;;;;11.98;6.55;;;19.80;99.90;;;;;;6260406;22;20026;-86
2023/08/15 09:40:25;;;;;;;13.77;7.20;;;20.30;99.90;;;;;;6279676;22;20019;-86
2023/08/15 09:43:16;;;;;;;15.93;7.60;;;19.90;99.90;;;;;;6279708;22;20023;-86
2023/08/15 09:45:42;;;;;;;14.18;7.13;;;19.90;99.90;;;;;;6278291;22;20020;-88
2023/08/15 09:51:18;;;;;;;11.43;6.85;;;20.20;99.90;;;;;;6291078;22;20023;-89
2023/08/15 09:54:10;;;;;;;13.02;6.75;;;20.30;99.90;;;;;;6304844;22;20015;-86
2023/08/15 09:59:57;;;;;;;14.57;4.22;;;20.30;99.90;;;;;;6210868;23;20551;-90
2023/08/15 10:02:26;;;;;;;10.63;4.03;;;20.30;99.90;;;;;;6187143;23;20048;-89
2023/08/15 10:05:06;;;;;;;11.82;4.10;;;20.40;99.90;;;;;;6186285;23;20314;-84
2023/08/15 10:07:42;;;;;;;11.93;4.30;;;20.40;99.90;;;;;;6211864;23;20027;-87
2023/08/15 10:10:15;;;;;;;11.20;3.92;;;20.40;99.90;;;;;;6219221;22;20107;-84
2023/08/15 10:12:42;;;;;;;10.88;3.80;;;20.50;99.90;;;;;;6274285;22;20019;-85
2023/08/15 10:15:09;;;;;;;9.95;3.40;;;20.60;99.90;;;;;;6248432;22;20007;-87
2023/08/15 10:17:57;;;;;;;9.85;3.40;;;20.70;99.90;;;;;;6275869;22;20027;-85
2023/08/15 10:20:36;;;;;;;13.15;3.83;;;20.90;99.90;;;;;;6275637;22;20024;-84
2023/08/15 10:23:09;;;;;;;11.40;3.33;;;21.10;99.90;;;;;;6274860;22;20012;-84
2023/08/15 10:25:36;;;;;;;10.07;3.40;;;21.40;99.90;;;;;;6274529;22;20016;-84
2023/08/15 10:28:12;;;;;;;10.20;3.40;;;21.70;99.90;;;;;;6274431;22;20012;-84
2023/08/15 10:30:48;;;;;;;10.35;3.40;;;21.80;99.90;;;;;;6274540;22;20114;-84
2023/08/15 10:33:19;;;;;;;10.98;3.97;;;22.10;99.90;;;;;;6249642;22;20026;-84
2023/08/15 10:36:11;;;;;;;8.55;3.10;;;22.00;99.90;;;;;;6275168;22;20024;-84
2023/08/15 10:38:43;;;;;;;11.77;3.80;;;22.20;99.90;;;;;;6274729;22;20019;-84
2023/08/15 10:41:19;;;;;;;11.52;3.88;;;22.40;99.90;;;;;;6275031;22;20046;-84
2023/08/15 10:43:55;;;;;;;10.68;3.72;;;22.60;99.90;;;;;;6275501;22;20012;-84
2023/08/15 10:46:26;;;;;;;10.35;3.60;;;22.90;99.90;;;;;;6276657;22;20024;-84
2023/08/15 10:49:24;;;;;;;9.93;3.80;;;22.90;99.90;;;;;;6275421;22;20008;-88
2023/08/15 10:51:58;;;;;;;11.85;4.07;;;22.90;99.90;;;;;;6243568;22;20024;-87
2023/08/15 10:54:51;;;;;;;10.73;3.47;;;22.80;99.90;;;;;;6262484;22;20019;-87
2023/08/15 10:57:33;;;;;;;11.73;3.30;;;23.00;99.90;;;;;;6279184;22;20020;-88
2023/08/15 11:03:26;;;;;;;7.78;2.88;;;22.60;99.90;;;;;;6190234;22;20025;-86
2023/08/15 11:06:53;;;;;;;;;;;;;;;;;;;;;
2023/08/15 11:09:37;;;;;;;10.52;2.92;;;23.00;99.90;;;;;;6269237;22;20439;-86
2023/08/15 11:12:26;;;;;;;9.48;3.10;;;23.00;99.90;;;;;;6276395;22;20024;-84
2023/08/15 11:15:30;;;;;;;8.68;3.00;;;23.10;99.90;;;;;;6209395;22;20336;-86
2023/08/15 11:18:08;;;;;;;8.57;2.90;;;22.80;99.90;;;;;;6275118;22;20008;-85
2023/08/15 11:20:50;;;;;;;10.90;3.30;;;22.70;99.90;;;;;;6248404;22;20026;-85
2023/08/15 11:23:32;;;;;;;11.40;3.10;;;22.60;99.90;;;;;;6248774;22;20153;-84
2023/08/15 11:26:12;;;;;;;11.00;3.42;;;22.70;99.90;;;;;;6247782;22;20012;-84
2023/08/15 11:28:38;;;;;;;8.57;2.95;;;23.10;99.90;;;;;;6276052;22;20018;-84
2023/08/15 11:31:58;;;;;;;9.02;2.97;;;23.30;99.90;;;;;;6267851;22;20459;-84
2023/08/15 11:34:24;;;;;;;10.52;3.20;;;23.30;99.90;;;;;;6273925;22;20030;-84
2023/08/15 11:36:51;;;;;;;11.15;3.25;;;23.60;99.90;;;;;;6248487;22;20015;-84
2023/08/15 11:39:17;;;;;;;10.70;3.30;;;23.60;99.90;;;;;;6275496;22;20090;-85
2023/08/15 11:41:47;;;;;;;9.00;3.40;;;23.70;99.90;;;;;;6248643;22;20026;-85
2023/08/15 11:44:12;;;;;;;16.45;5.00;;;23.70;99.90;;;;;;6275136;22;20023;-86
2023/08/15 11:46:38;;;;;;;11.73;5.05;;;23.70;99.90;;;;;;6247614;22;20344;-85
2023/08/15 11:49:17;;;;;;;10.50;3.83;;;23.80;99.90;;;;;;6276276;22;20099;-85
2023/08/15 11:51:43;;;;;;;9.73;3.28;;;23.80;99.90;;;;;;6275994;22;20016;-85
2023/08/15 11:54:18;;;;;;;9.82;4.13;;;24.00;99.90;;;;;;6275215;22;20015;-85
2023/08/15 11:56:54;;;;;;;8.88;3.25;;;24.00;99.90;;;;;;6275487;22;20356;-85
2023/08/15 11:59:19;;;;;;;9.35;3.28;;;24.10;99.90;;;;;;6275164;22;20062;-85
2023/08/15 12:02:07;;;;;;;9.50;3.20;;;24.20;99.90;;;;;;6249240;22;20424;-85
2023/08/15 12:04:39;;;;;;;10.85;3.10;;;24.30;99.90;;;;;;6275731;22;20322;-85
2023/08/15 12:07:09;;;;;;;9.95;3.08;;;24.10;99.90;;;;;;6273489;22;20047;-85
2023/08/15 12:09:37;;;;;;;10.80;3.63;;;24.30;99.90;;;;;;6248827;22;20024;-87
2023/08/15 12:12:04;;;;;;;8.25;3.03;;;24.50;99.90;;;;;;6274192;22;20055;-87
2023/08/15 12:14:29;;;;;;;10.00;2.97;;;24.60;99.90;;;;;;6247666;22;20032;-87
2023/08/15 12:17:14;;;;;;;11.52;3.50;;;24.70;99.90;;;;;;6248454;22;20034;-85
2023/08/15 12:19:57;;;;;;;9.23;3.78;;;24.80;99.90;;;;;;6276094;22;20099;-86
2023/08/15 12:22:35;;;;;;;9.32;3.60;;;24.70;99.90;;;;;;6275177;22;20020;-88
2023/08/15 12:25:04;;;;;;;10.32;3.60;;;25.10;99.90;;;;;;6249286;22;20024;-85
2023/08/15 12:27:42;;;;;;;9.65;3.80;;;25.10;99.90;;;;;;6274166;22;20602;-85
2023/08/15 12:30:26;;;;;;;10.55;4.10;;;24.80;99.90;;;;;;6236921;23;20020;-85
2023/08/15 12:33:05;;;;;;;9.98;3.63;;;24.60;99.90;;;;;;6243784;23;20016;-85
2023/08/15 12:35:32;;;;;;;9.77;3.95;;;24.30;99.90;;;;;;6242584;23;20012;-86
2023/08/15 12:38:09;;;;;;;9.43;3.63;;;24.30;99.90;;;;;;6244673;23;20012;-86
2023/08/15 12:40:53;;;;;;;11.43;4.10;;;24.20;99.90;;;;;;6245430;23;20020;-85
2023/08/15 12:43:34;;;;;;;12.27;4.60;;;24.40;99.90;;;;;;6245935;23;20027;-86
2023/08/15 12:46:48;;;;;;;12.38;4.05;;;24.50;99.90;;;;;;6245571;23;20019;-85
2023/08/15 13:04:22;;;;;;;11.15;4.15;;;24.50;99.90;;;;;;6225754;23;20014;-87
2023/08/15 13:10:14;;;;;;;9.88;3.78;;;24.00;99.90;;;;;;6303154;22;20030;-86
2023/08/15 13:13:05;;;;;;;10.40;4.30;;;23.80;99.90;;;;;;6279731;22;20023;-87
2023/08/15 13:15:53;;;;;;;10.07;4.05;;;23.30;99.90;;;;;;6280543;22;20096;-87
2023/08/15 15:26:20;;;;;;;8.60;3.20;;;24.10;99.90;;;;;;6266814;22;20034;-86
2023/08/15 15:29:23;;;;;;;8.25;2.80;;;24.30;99.90;;;;;;6304740;22;20023;-86
2023/08/15 15:53:53;;;;;;;6.05;2.10;;;24.20;99.90;;;;;;6300192;22;20408;-83
2023/08/15 15:56:50;;;;;;;6.70;2.22;;;24.20;99.90;;;;;;6308248;22;20015;-86
2023/08/15 16:06:34;;;;;;;7.45;2.40;;;23.50;99.90;;;;;;6267309;22;20027;-86
2023/08/15 16:31:10;;;;;;;7.78;2.15;;;23.20;99.90;;;;;;6118539;22;20280;-84
2023/08/15 16:57:26;;;;;;;7.50;2.83;;;23.60;99.90;;;;;;6181457;23;20024;-86
2023/08/15 17:27:34;;;;;;;;;;;;;;;;;;;;;
2023/08/15 17:33:13;;;;;;;12.30;2.90;;;23.00;99.90;;;;;;6282978;22;20057;-88
2023/08/15 17:36:02;;;;;;;;;;;;;;;;;;;;;
2023/08/15 17:38:53;;;;;;;7.82;2.60;;;24.30;99.90;;;;;;6308525;22;20026;-89
2023/08/15 17:44:06;;;;;;;7.60;2.60;;;24.60;99.90;;;;;;6286807;22;20079;-88
2023/08/15 18:09:24;;;;;;;7.80;2.40;;;23.20;99.90;;;;;;6307139;22;20077;-88
2023/08/15 18:12:39;;;;;;;7.20;2.42;;;22.80;99.90;;;;;;6306474;22;20089;-88
2023/08/15 18:17:41;;;;;;;7.45;2.40;;;22.10;99.90;;;;;;6241829;22;20030;-88
2023/08/15 18:20:41;;;;;;;7.53;2.38;;;21.90;99.90;;;;;;6306653;22;20347;-87
2023/08/15 18:23:27;;;;;;;8.18;2.47;;;21.70;99.90;;;;;;6307699;22;20031;-89
2023/08/15 18:26:02;;;;;;;8.15;2.42;;;21.60;99.90;;;;;;6279507;22;20018;-88
2023/08/15 18:28:41;;;;;;;7.95;2.28;;;21.50;99.90;;;;;;6281255;22;20019;-88
2023/08/15 18:31:09;;;;;;;6.93;2.20;;;21.30;99.90;;;;;;6281620;22;20015;-88
2023/08/15 18:34:02;;;;;;;6.90;2.17;;;21.20;99.90;;;;;;6298093;22;20023;-89
2023/08/15 18:36:34;;;;;;;7.47;2.00;;;21.00;99.90;;;;;;6252766;22;20356;-89
2023/08/15 18:39:10;;;;;;;7.43;2.20;;;20.90;99.90;;;;;;6280438;22;20055;-89
2023/08/15 18:41:35;;;;;;;6.88;2.22;;;20.80;99.90;;;;;;6249444;22;20073;-89
2023/08/15 18:50:21;;;;;;;7.43;2.10;;;20.40;99.90;;;;;;6306092;22;20049;-88
2023/08/15 18:52:47;;;;;;;6.95;2.20;;;20.30;99.90;;;;;;6287224;22;20090;-88
2023/08/15 18:55:25;;;;;;;6.13;2.00;;;20.20;99.90;;;;;;6282573;22;20034;-89
2023/08/15 18:58:03;;;;;;;6.10;2.10;;;20.10;99.90;;;;;;6306039;22;20093;-89
2023/08/15 19:00:30;;;;;;;9.57;2.60;;;20.00;99.90;;;;;;6306453;22;20343;-89
2023/08/15 19:02:55;;;;;;;8.55;2.55;;;19.90;99.90;;;;;;6279614;22;20431;-88
2023/08/15 19:05:30;;;;;;;6.30;2.30;;;19.80;99.90;;;;;;6281271;22;20015;-88
2023/08/15 19:08:14;;;;;;;7.20;2.40;;;19.70;99.90;;;;;;6308255;22;20018;-88
2023/08/15 19:10:46;;;;;;;8.82;2.38;;;19.70;99.90;;;;;;6280057;22;20038;-90
2023/08/15 19:13:12;;;;;;;7.50;2.28;;;19.60;99.90;;;;;;6279102;22;20011;-88
2023/08/15 19:15:38;;;;;;;8.65;2.30;;;19.60;99.90;;;;;;6306626;22;20427;-90
2023/08/15 19:18:18;;;;;;;7.45;2.10;;;19.50;99.90;;;;;;6280754;22;20011;-89
2023/08/15 19:20:49;;;;;;;8.68;2.83;;;19.40;99.90;;;;;;6307698;22;20090;-89
2023/08/15 19:23:24;;;;;;;8.32;2.40;;;19.30;99.90;;;;;;6280280;22;20023;-89
2023/08/15 19:26:07;;;;;;;9.13;2.55;;;19.20;99.90;;;;;;6280932;22;20062;-89
2023/08/15 19:28:39;;;;;;;9.73;2.60;;;19.10;99.90;;;;;;6291685;22;20041;-89
2023/08/15 19:31:14;;;;;;;9.18;3.13;;;18.90;99.90;;;;;;6280806;22;20019;-88
2023/08/15 19:33:43;;;;;;;11.90;3.22;;;19.00;99.90;;;;;;6307485;22;20436;-86
2023/08/15 19:36:51;;;;;;;10.07;3.35;;;18.90;99.90;;;;;;6279728;22;20022;-87
2023/08/15 19:39:17;;;;;;;7.75;2.60;;;18.80;99.90;;;;;;6307049;22;20019;-87
2023/08/15 19:41:52;;;;;;;7.60;2.55;;;18.70;99.90;;;;;;6306764;22;20019;-87
2023/08/15 19:44:28;;;;;;;8.13;2.60;;;18.60;99.90;;;;;;6306445;22;20121;-87
2023/08/15 19:49:57;;;;;;;7.05;2.40;;;18.40;99.90;;;;;;6304331;22;20031;-86
2023/08/15 19:52:30;;;;;;;7.38;2.58;;;18.30;99.90;;;;;;6278224;22;20038;-86
2023/08/15 19:54:59;;;;;;;8.48;2.60;;;18.20;99.90;;;;;;6307543;22;20016;-87
2023/08/15 19:57:31;;;;;;;7.72;2.50;;;18.20;99.90;;;;;;6306632;22;20015;-87
2023/08/15 19:59:58;;;;;;;7.38;2.75;;;18.10;99.90;;;;;;6304502;22;20105;-87
2023/08/15 20:02:44;;;;;;;;;;;;;;;;;;;;;
2023/08/15 20:05:43;;;;;;;7.53;2.30;;;17.90;99.90;;;;;;6244496;22;20023;-87
2023/08/15 20:08:20;;;;;;;9.20;2.70;;;17.80;99.90;;;;;;6279702;22;20098;-87
2023/08/15 20:10:55;;;;;;;7.78;3.00;;;17.80;99.90;;;;;;6300555;22;20037;-87
2023/08/15 20:13:24;;;;;;;7.68;2.50;;;17.70;99.90;;;;;;6280842;22;20065;-86
2023/08/15 20:16:29;;;;;;;8.68;2.95;;;17.60;99.90;;;;;;6282608;22;20090;-86
2023/08/15 20:18:57;;;;;;;8.27;2.50;;;17.50;99.90;;;;;;6294048;22;20011;-86
2023/08/15 20:24:10;;;;;;;8.05;2.80;;;17.50;99.90;;;;;;6309999;22;20023;-86
2023/08/15 20:26:42;;;;;;;7.88;2.58;;;17.40;99.90;;;;;;6284635;22;20076;-86
2023/08/15 20:29:08;;;;;;;9.55;2.60;;;17.80;99.90;;;;;;6281655;22;20019;-86
2023/08/15 20:31:33;;;;;;;7.70;2.55;;;17.30;99.90;;;;;;6312711;22;20087;-86
2023/08/15 20:34:11;;;;;;;8.63;2.75;;;17.20;99.90;;;;;;6312153;22;20030;-86
2023/08/15 20:37:33;;;;;;;7.57;2.65;;;17.30;99.90;;;;;;6282671;22;20436;-87
2023/08/15 20:39:58;;;;;;;7.03;2.65;;;17.10;99.90;;;;;;6183475;23;20017;-87
2023/08/15 20:42:52;;;;;;;7.68;2.63;;;17.00;99.90;;;;;;6159428;23;20104;-86
2023/08/15 20:45:33;;;;;;;9.45;2.78;;;16.50;99.90;;;;;;6253551;22;20015;-86
2023/08/15 20:48:01;;;;;;;8.25;2.90;;;16.90;99.90;;;;;;6278785;22;20445;-87
2023/08/15 20:50:50;;;;;;;9.73;3.00;;;16.90;99.90;;;;;;6308491;22;20431;-87
2023/08/15 20:53:28;;;;;;;9.75;3.05;;;16.80;99.90;;;;;;6281657;22;20019;-86